createdAt,value
2019-01-25T00:02:39.852Z,-4.34
2019-01-25T00:05:48.757Z,-4.33
2019-01-25T00:11:52.598Z,-4.31
2019-01-25T00:14:40.545Z,-4.29
2019-01-25T00:19:58.632Z,-4.19
2019-01-25T00:31:25.141Z,-4.12
2019-01-25T00:34:13.004Z,-4.09
2019-01-25T00:37:00.833Z,-4.10
2019-01-25T00:39:48.712Z,-4.20
2019-01-25T00:42:36.690Z,-4.11
2019-01-25T00:45:45.151Z,-4.21
2019-01-25T00:48:33.005Z,-4.33
2019-01-25T00:51:21.063Z,-4.24
2019-01-25T00:54:08.947Z,-4.22
2019-01-25T00:56:37.654Z,-4.28
2019-01-25T01:02:13.201Z,-4.24
2019-01-25T01:05:00.975Z,-4.32
2019-01-25T01:10:28.165Z,-4.23
2019-01-25T01:13:16.055Z,-4.24
2019-01-25T01:16:03.933Z,-4.31
2019-01-25T01:18:51.826Z,-4.30
2019-01-25T01:21:20.516Z,-4.42
2019-01-25T01:24:08.375Z,-4.42
2019-01-25T01:26:56.218Z,-4.45
2019-01-25T01:29:44.120Z,-4.43
2019-01-25T01:32:32.040Z,-4.51
2019-01-25T01:35:20.029Z,-4.50
2019-01-25T01:38:28.488Z,-4.49
2019-01-25T01:41:16.398Z,-4.50
2019-01-25T01:44:04.290Z,-4.43
2019-01-25T01:46:52.149Z,-4.44
2019-01-25T01:49:40.037Z,-4.45
2019-01-25T01:52:27.919Z,-4.40
2019-01-25T01:55:15.754Z,-4.48
2019-01-25T02:00:58.224Z,-4.38
2019-01-25T02:03:46.103Z,-4.36
2019-01-25T02:06:33.947Z,-4.47
2019-01-25T02:12:01.006Z,-4.44
2019-01-25T02:14:48.797Z,-4.44
2019-01-25T02:17:17.461Z,-4.48
2019-01-25T02:19:46.130Z,-4.50
2019-01-25T02:22:14.748Z,-4.51
2019-01-25T02:24:43.268Z,-4.49
2019-01-25T02:27:11.887Z,-4.52
2019-01-25T02:29:40.404Z,-4.52
2019-01-25T02:32:08.956Z,-4.54
2019-01-25T02:34:37.471Z,-4.58
2019-01-25T02:37:06.098Z,-4.57
2019-01-25T02:39:34.787Z,-4.51
2019-01-25T02:42:03.435Z,-4.46
2019-01-25T02:44:32.082Z,-4.42
2019-01-25T02:47:00.767Z,-4.35
2019-01-25T02:49:29.451Z,-4.36
2019-01-25T02:51:58.127Z,-4.41
2019-01-25T02:54:26.813Z,-4.43
2019-01-25T02:56:55.793Z,-4.47
2019-01-25T02:59:24.487Z,-4.43
2019-01-25T03:01:53.139Z,-4.45
2019-01-25T03:04:21.816Z,-4.45
2019-01-25T03:06:50.807Z,-4.43
2019-01-25T03:09:19.493Z,-4.42
2019-01-25T03:11:48.173Z,-4.42
2019-01-25T03:14:16.855Z,-4.45
2019-01-25T03:16:45.559Z,-4.39
2019-01-25T03:19:14.184Z,-4.43
2019-01-25T03:21:42.835Z,-4.43
2019-01-25T03:24:11.515Z,-4.46
2019-01-25T03:26:40.194Z,-4.42
2019-01-25T03:29:08.886Z,-4.42
2019-01-25T03:31:38.053Z,-4.39
2019-01-25T03:47:00.073Z,-4.44
2019-01-25T03:52:21.842Z,-4.47
2019-01-25T03:55:09.826Z,-4.45
2019-01-25T03:57:57.746Z,-4.42
2019-01-25T04:01:06.246Z,-4.44
2019-01-25T04:06:41.984Z,-4.44
2019-01-25T04:09:31.387Z,-4.46
2019-01-25T04:12:00.113Z,-4.43
2019-01-25T04:14:28.888Z,-4.49
2019-01-25T04:16:57.679Z,-4.58
2019-01-25T04:19:26.407Z,-4.59
2019-01-25T04:22:14.390Z,-4.52
2019-01-25T04:25:02.718Z,-4.54
2019-01-25T04:27:52.245Z,-4.49
2019-01-25T04:38:42.711Z,-4.53
2019-01-25T04:41:12.022Z,-4.57
2019-01-25T04:44:00.990Z,-4.54
2019-01-25T04:46:29.737Z,-4.51
2019-01-25T04:49:19.028Z,-4.52
2019-01-25T04:55:02.038Z,-4.45
2019-01-25T04:57:50.014Z,-4.52
2019-01-25T05:00:58.575Z,-4.57
2019-01-25T05:03:27.339Z,-4.52
2019-01-25T05:09:10.453Z,-4.46
2019-01-25T05:11:39.122Z,-4.44
2019-01-25T05:14:27.011Z,-4.40
2019-01-25T05:17:14.908Z,-4.52
2019-01-25T05:20:02.889Z,-4.52
2019-01-25T05:25:40.078Z,-4.49
2019-01-25T05:28:48.616Z,-4.49
2019-01-25T05:31:17.316Z,-4.53
2019-01-25T05:34:25.837Z,-4.50
2019-01-25T05:37:13.700Z,-4.50
2019-01-25T05:40:01.759Z,-4.38
2019-01-25T05:42:49.678Z,-4.39
2019-01-25T05:45:58.148Z,-4.43
2019-01-25T05:49:06.599Z,-4.47
2019-01-25T05:51:54.441Z,-4.46
2019-01-25T05:54:42.475Z,-4.49
2019-01-25T06:08:07.754Z,-4.57
2019-01-25T06:13:39.354Z,-4.83
2019-01-25T06:21:49.066Z,-5.04
2019-01-25T06:24:36.906Z,-5.12
2019-01-25T06:27:45.686Z,-5.10
2019-01-25T06:30:33.675Z,-5.14
2019-01-25T06:33:02.852Z,-5.16
2019-01-25T06:35:52.342Z,-5.18
2019-01-25T06:39:00.840Z,-5.16
2019-01-25T06:41:48.778Z,-5.32
2019-01-25T06:44:36.903Z,-5.32
2019-01-25T06:49:53.269Z,-5.28
2019-01-25T06:52:21.992Z,-5.37
2019-01-25T06:55:09.919Z,-5.54
2019-01-25T06:57:57.757Z,-5.61
2019-01-25T07:03:40.725Z,-5.75
2019-01-25T07:06:28.654Z,-5.84
2019-01-25T07:09:16.727Z,-5.90
2019-01-25T07:12:04.733Z,-6.05
2019-01-25T07:14:52.689Z,-6.05
2019-01-25T07:20:50.411Z,-6.08
2019-01-25T07:26:12.697Z,-6.05
2019-01-25T07:29:00.543Z,-6.03
2019-01-25T07:37:29.448Z,-5.98
2019-01-25T07:42:52.744Z,-5.79
2019-01-25T07:56:11.498Z,-5.35
2019-01-25T07:58:59.486Z,-5.33
2019-01-25T08:04:22.250Z,-5.31
2019-01-25T08:07:32.365Z,-5.27
2019-01-25T08:10:20.461Z,-5.21
2019-01-25T08:13:08.500Z,-5.16
2019-01-25T08:15:56.415Z,-5.13
2019-01-25T08:18:44.379Z,-5.07
2019-01-25T08:24:19.916Z,-4.74
2019-01-25T08:29:28.405Z,-4.94
2019-01-25T08:35:05.022Z,-4.94
2019-01-25T08:37:52.907Z,-4.76
2019-01-25T08:41:01.357Z,-4.90
2019-01-25T08:43:30.077Z,-4.99
2019-01-25T08:45:58.755Z,-5.17
2019-01-25T08:48:46.619Z,-5.10
2019-01-25T08:54:22.244Z,-4.95
2019-01-25T08:57:10.225Z,-4.78
2019-01-25T08:59:58.166Z,-4.69
2019-01-25T09:02:26.914Z,-4.45
2019-01-25T09:04:55.634Z,-4.69
2019-01-25T09:07:43.431Z,-4.62
2019-01-25T09:10:51.938Z,-4.61
2019-01-25T09:13:39.929Z,-4.43
2019-01-25T09:19:01.967Z,-4.12
2019-01-25T09:21:30.629Z,-3.61
2019-01-25T09:24:18.525Z,-3.60
2019-01-25T09:27:06.454Z,-3.83
2019-01-25T09:29:54.301Z,-3.91
2019-01-25T09:32:43.748Z,-3.78
2019-01-25T09:35:52.475Z,-3.96
2019-01-25T09:38:40.309Z,-3.95
2019-01-25T09:43:43.013Z,-3.68
2019-01-25T09:46:11.756Z,-3.76
2019-01-25T09:48:59.608Z,-3.79
2019-01-25T09:51:47.466Z,-3.75
2019-01-25T09:54:35.493Z,-3.57
2019-01-25T10:00:52.121Z,-2.95
2019-01-25T10:03:40.095Z,-2.57
2019-01-25T10:06:27.895Z,-2.87
2019-01-25T10:09:15.910Z,-3.03
2019-01-25T10:12:03.869Z,-3.25
2019-01-25T10:14:51.866Z,-3.24
2019-01-25T10:19:54.786Z,-3.34
2019-01-25T10:22:42.771Z,-3.19
2019-01-25T10:25:51.267Z,-2.57
2019-01-25T10:28:39.072Z,-2.63
2019-01-25T10:33:41.997Z,-1.99
2019-01-25T10:41:52.081Z,-2.53
2019-01-25T10:44:20.873Z,-2.44
2019-01-25T10:47:08.808Z,-2.37
2019-01-25T10:49:56.661Z,-2.61
2019-01-25T10:55:44.390Z,-2.38
2019-01-25T10:58:52.910Z,-2.49
2019-01-25T11:04:11.610Z,-2.63
2019-01-25T11:06:39.933Z,-2.79
2019-01-25T11:09:48.430Z,-2.75
2019-01-25T11:12:36.439Z,-2.45
2019-01-25T11:15:44.927Z,-2.55
2019-01-25T11:21:07.578Z,-2.16
2019-01-25T11:23:55.489Z,-2.14
2019-01-25T11:26:43.462Z,-2.18
2019-01-25T11:29:12.165Z,-2.25
2019-01-25T11:32:00.153Z,-2.20
2019-01-25T11:37:16.518Z,-2.33
2019-01-25T11:40:04.448Z,-2.10
2019-01-25T11:42:53.720Z,-1.66
2019-01-25T11:45:22.690Z,-1.89
2019-01-25T11:47:51.498Z,-1.79
2019-01-25T11:50:59.998Z,-1.60
2019-01-25T11:56:02.923Z,-1.79
2019-01-25T12:01:45.851Z,-1.73
2019-01-25T12:10:01.212Z,-1.82
2019-01-25T12:12:49.203Z,-1.79
2019-01-25T12:15:57.651Z,-1.92
2019-01-25T12:18:26.496Z,-1.56
2019-01-25T12:21:14.458Z,-1.62
2019-01-25T12:24:02.384Z,-1.72
2019-01-25T12:26:50.352Z,-1.63
2019-01-25T12:29:38.308Z,-1.85
2019-01-25T12:32:06.977Z,-1.87
2019-01-25T12:34:54.927Z,-1.85
2019-01-25T12:40:30.553Z,-1.75
2019-01-25T12:45:50.236Z,-2.30
2019-01-25T12:48:36.439Z,-2.29
2019-01-25T12:51:44.942Z,-2.06
2019-01-25T12:54:13.690Z,-1.84
2019-01-25T12:57:01.650Z,-1.59
2019-01-25T12:59:49.580Z,-1.51
2019-01-25T13:02:37.661Z,-1.57
2019-01-25T13:05:46.112Z,-1.45
2019-01-25T13:08:34.067Z,-1.15
2019-01-25T13:11:21.866Z,-1.27
2019-01-25T13:17:03.455Z,-1.27
2019-01-25T13:24:53.699Z,-1.29
2019-01-25T13:29:56.785Z,-1.04
2019-01-25T13:32:25.574Z,-0.93
2019-01-25T13:34:54.426Z,-1.23
2019-01-25T13:42:32.880Z,-1.45
2019-01-25T13:45:20.858Z,-1.45
2019-01-25T13:50:57.705Z,-1.23
2019-01-25T13:56:33.143Z,-1.46
2019-01-25T14:05:02.281Z,-1.72
2019-01-25T14:07:50.282Z,-1.65
2019-01-25T14:10:58.771Z,-1.75
2019-01-25T14:13:47.140Z,-1.66
2019-01-25T14:16:36.214Z,-1.59
2019-01-25T14:19:44.711Z,-1.12
2019-01-25T14:22:32.558Z,-1.10
2019-01-25T14:25:20.350Z,-1.23
2019-01-25T14:30:49.307Z,-1.06
2019-01-25T14:33:37.136Z,-0.99
2019-01-25T14:36:25.169Z,-1.03
2019-01-25T14:38:53.995Z,-1.24
2019-01-25T14:41:41.913Z,-1.28
2019-01-25T14:44:10.640Z,-1.39
2019-01-25T14:52:26.075Z,-1.45
2019-01-25T14:55:14.048Z,-1.31
2019-01-25T15:02:51.673Z,-1.12
2019-01-25T15:06:00.121Z,-1.15
2019-01-25T15:08:47.948Z,-1.15
2019-01-25T15:11:35.889Z,-0.88
2019-01-25T15:14:44.380Z,-1.10
2019-01-25T15:17:32.311Z,-1.22
2019-01-25T15:20:01.105Z,-1.37
2019-01-25T15:22:49.087Z,-1.61
2019-01-25T15:25:17.769Z,-1.66
2019-01-25T15:27:46.483Z,-1.68
2019-01-25T15:30:54.979Z,-1.70
2019-01-25T15:33:43.001Z,-1.55
2019-01-25T15:38:59.386Z,-1.39
2019-01-25T15:42:07.879Z,-1.51
2019-01-25T15:44:55.812Z,-1.58
2019-01-25T15:55:48.171Z,-1.93
2019-01-25T15:58:36.123Z,-2.03
2019-01-25T16:03:39.468Z,-2.23
2019-01-25T16:06:08.152Z,-2.25
2019-01-25T16:08:56.104Z,-2.27
2019-01-25T16:11:44.143Z,-2.20
2019-01-25T16:17:00.805Z,-2.20
2019-01-25T16:19:48.637Z,-2.19
2019-01-25T16:22:36.473Z,-2.21
2019-01-25T16:25:45.029Z,-2.21
2019-01-25T16:28:33.031Z,-2.20
2019-01-25T16:31:21.035Z,-2.19
2019-01-25T16:34:09.013Z,-2.17
2019-01-25T16:36:56.874Z,-2.19
2019-01-25T16:39:44.730Z,-2.21
2019-01-25T16:42:32.706Z,-2.18
2019-01-25T16:45:20.725Z,-2.15
2019-01-25T16:48:08.651Z,-2.15
2019-01-25T16:51:17.159Z,-2.11
2019-01-25T16:54:05.063Z,-2.14
2019-01-25T17:02:01.642Z,-2.16
2019-01-25T17:04:49.583Z,-2.13
2019-01-25T17:10:51.691Z,-2.09
2019-01-25T17:13:39.541Z,-2.08
2019-01-25T17:24:16.767Z,-2.04
2019-01-25T17:32:27.275Z,-2.05
2019-01-25T17:35:15.247Z,-2.02
2019-01-25T17:38:03.050Z,-2.02
2019-01-25T17:43:25.042Z,-1.98
2019-01-25T17:59:04.299Z,-1.93
2019-01-25T18:01:52.270Z,-1.91
2019-01-25T18:04:40.185Z,-1.94
2019-01-25T18:07:28.023Z,-1.94
2019-01-25T18:12:49.987Z,-1.92
2019-01-25T18:15:58.433Z,-1.94
2019-01-25T18:18:27.158Z,-1.92
2019-01-25T18:23:43.583Z,-1.95
2019-01-25T18:26:31.632Z,-1.92
2019-01-25T18:34:41.476Z,-1.88
2019-01-25T18:40:03.965Z,-1.89
2019-01-25T18:42:51.914Z,-1.84
2019-01-25T18:48:48.129Z,-1.87
2019-01-25T18:54:44.206Z,-1.82
2019-01-25T18:57:32.461Z,-1.82
2019-01-25T19:00:21.268Z,-1.80
2019-01-25T19:03:09.619Z,-1.85
2019-01-25T19:08:45.241Z,-1.87
2019-01-25T19:16:41.747Z,-1.87
2019-01-25T19:22:37.857Z,-1.87
2019-01-25T19:25:27.305Z,-1.87
2019-01-25T19:28:15.294Z,-1.84
2019-01-25T19:31:23.876Z,-1.81
2019-01-25T19:34:11.807Z,-1.83
2019-01-25T19:36:59.778Z,-1.82
2019-01-25T19:39:47.749Z,-1.77
2019-01-25T19:42:16.442Z,-1.79
2019-01-25T19:45:11.699Z,-1.81
2019-01-25T19:47:34.797Z,-1.83
2019-01-25T19:52:58.196Z,-1.81
2019-01-25T19:58:53.086Z,-1.83
2019-01-25T20:09:44.555Z,-1.67
2019-01-25T20:12:13.289Z,-1.68
2019-01-25T20:15:01.264Z,-1.70
2019-01-25T20:17:49.265Z,-1.65
2019-01-25T20:20:38.026Z,-1.57
2019-01-25T20:23:46.508Z,-1.64
2019-01-25T20:26:34.619Z,-1.64
2019-01-25T20:32:10.124Z,-1.57
2019-01-25T20:34:58.089Z,-1.54
2019-01-25T20:37:46.127Z,-1.55
2019-01-25T20:40:54.648Z,-1.47
2019-01-25T20:43:42.631Z,-1.54
2019-01-25T20:46:31.244Z,-1.53
2019-01-25T20:52:15.527Z,-1.56
2019-01-25T20:59:54.801Z,-1.54
2019-01-25T21:02:42.575Z,-1.54
2019-01-25T21:10:59.428Z,-1.56
2019-01-25T21:13:47.351Z,-1.56
2019-01-25T21:16:55.892Z,-1.50
2019-01-25T21:19:24.664Z,-1.47
2019-01-25T21:25:00.242Z,-1.59
2019-01-25T21:30:44.792Z,-1.52
2019-01-25T21:36:20.458Z,-1.60
2019-01-25T21:42:16.606Z,-1.52
2019-01-25T21:45:04.515Z,-1.57
2019-01-25T21:47:52.360Z,-1.52
2019-01-25T21:51:00.820Z,-1.45
2019-01-25T21:53:48.781Z,-1.50
2019-01-25T21:56:36.748Z,-1.47
2019-01-25T21:59:24.669Z,-1.42
2019-01-25T22:04:46.903Z,-1.43
2019-01-25T22:09:50.276Z,-1.42
2019-01-25T22:15:51.035Z,-1.42
2019-01-25T22:18:58.292Z,-1.33
2019-01-25T22:21:46.304Z,-1.39
2019-01-25T22:24:34.202Z,-1.38
2019-01-25T22:27:22.057Z,-1.38
2019-01-25T22:30:10.016Z,-1.33
2019-01-25T22:32:57.951Z,-1.31
2019-01-25T22:38:20.055Z,-1.35
2019-01-25T22:43:42.041Z,-1.36
2019-01-25T22:49:45.194Z,-1.32
2019-01-25T22:56:00.771Z,-1.31
2019-01-25T23:01:56.928Z,-1.31
2019-01-25T23:05:04.124Z,-1.33
2019-01-25T23:07:32.905Z,-1.26
2019-01-25T23:10:20.886Z,-1.27
2019-01-25T23:12:49.581Z,-1.25
2019-01-25T23:15:18.485Z,-1.27
2019-01-25T23:17:47.229Z,-1.30
2019-01-25T23:20:15.939Z,-1.29
2019-01-25T23:22:44.607Z,-1.19
2019-01-25T23:25:13.438Z,-1.26
2019-01-25T23:27:42.105Z,-1.30
2019-01-25T23:41:21.308Z,-1.33
2019-01-25T23:44:09.231Z,-1.35
2019-01-25T23:49:31.586Z,-1.35
2019-01-25T23:55:07.079Z,-1.41
2019-01-25T23:57:55.009Z,-1.40
